createdAt,value
2022-12-18T00:03:58.726Z,35.95
2022-12-18T00:10:00.312Z,42.40
2022-12-18T00:16:12.359Z,33.90
2022-12-18T00:22:13.911Z,34.90
2022-12-18T00:28:15.414Z,31.40
2022-12-18T00:34:16.955Z,32.58
2022-12-18T00:40:18.462Z,30.77
2022-12-18T00:46:20.052Z,35.50
2022-12-18T00:52:23.277Z,30.83
2022-12-18T00:58:24.768Z,32.03
2022-12-18T01:04:26.243Z,36.90
2022-12-18T01:10:27.751Z,36.65
2022-12-18T01:16:32.630Z,30.23
2022-12-18T01:22:34.187Z,30.70
2022-12-18T01:28:36.197Z,29.50
2022-12-18T01:34:38.147Z,34.00
2022-12-18T01:40:39.676Z,28.33
2022-12-18T01:46:41.177Z,29.10
2022-12-18T01:52:50.855Z,29.92
2022-12-18T01:58:59.335Z,29.03
2022-12-18T02:05:01.275Z,25.38
2022-12-18T02:11:07.118Z,26.40
2022-12-18T02:17:22.487Z,27.03
2022-12-18T02:23:24.077Z,31.40
2022-12-18T02:29:29.231Z,26.67
2022-12-18T02:35:31.425Z,27.15
2022-12-18T02:41:35.201Z,26.55
2022-12-18T02:47:40.111Z,29.90
2022-12-18T02:53:52.618Z,31.77
2022-12-18T03:00:00.992Z,27.57
2022-12-18T03:06:08.650Z,27.05
2022-12-18T03:12:25.587Z,23.85
2022-12-18T03:18:37.388Z,27.13
2022-12-18T03:24:40.474Z,19.65
2022-12-18T03:30:44.671Z,23.23
2022-12-18T03:36:46.557Z,24.45
2022-12-18T03:42:55.615Z,19.80
2022-12-18T03:49:25.422Z,26.07
2022-12-18T03:55:31.301Z,20.60
2022-12-18T04:01:39.117Z,22.13
2022-12-18T04:07:41.028Z,20.55
2022-12-18T04:13:44.658Z,20.92
2022-12-18T04:19:57.051Z,21.13
2022-12-18T04:26:00.033Z,30.38
2022-12-18T04:32:14.736Z,22.93
2022-12-18T04:38:18.794Z,18.80
2022-12-18T04:44:23.801Z,20.67
2022-12-18T04:50:25.441Z,19.63
2022-12-18T04:56:26.922Z,18.27
2022-12-18T05:02:28.464Z,15.70
2022-12-18T05:08:30.118Z,19.35
2022-12-18T05:14:31.658Z,14.85
2022-12-18T05:20:33.153Z,18.43
2022-12-18T05:26:34.769Z,18.17
2022-12-18T05:32:36.327Z,20.03
2022-12-18T05:38:38.912Z,13.90
2022-12-18T05:44:40.523Z,18.00
2022-12-18T05:50:43.018Z,12.43
2022-12-18T05:56:48.628Z,17.27
2022-12-18T06:02:50.552Z,23.37
2022-12-18T06:08:52.587Z,14.65
2022-12-18T06:14:54.319Z,18.00
2022-12-18T06:20:59.352Z,15.07
2022-12-18T06:27:00.848Z,14.73
2022-12-18T06:33:02.406Z,15.43
2022-12-18T06:39:03.993Z,15.00
2022-12-18T06:45:05.730Z,14.65
2022-12-18T06:51:07.602Z,11.97
2022-12-18T06:57:09.155Z,13.55
2022-12-18T07:03:11.495Z,16.27
2022-12-18T07:09:13.460Z,16.30
2022-12-18T07:15:16.199Z,16.63
2022-12-18T07:21:19.062Z,18.50
2022-12-18T07:27:20.602Z,19.38
2022-12-18T07:33:22.132Z,14.40
2022-12-18T07:39:23.693Z,17.83
2022-12-18T07:45:25.314Z,14.90
2022-12-18T07:51:26.914Z,17.37
2022-12-18T07:57:49.446Z,17.13
2022-12-18T08:03:49.951Z,16.63
2022-12-18T08:09:53.835Z,26.33
2022-12-18T08:16:02.543Z,18.15
2022-12-18T08:22:04.051Z,16.10
2022-12-18T08:28:05.564Z,19.30
2022-12-18T08:34:07.083Z,18.80
2022-12-18T08:40:08.946Z,13.52
2022-12-18T08:46:10.627Z,15.48
2022-12-18T08:52:15.329Z,13.53
2022-12-18T08:58:17.044Z,11.38
2022-12-18T09:04:18.599Z,13.47
2022-12-18T09:10:20.147Z,14.90
2022-12-18T09:16:26.114Z,14.85
2022-12-18T09:22:31.895Z,18.50
2022-12-18T09:28:33.650Z,16.20
2022-12-18T09:34:35.211Z,15.03
2022-12-18T09:40:40.694Z,18.73
2022-12-18T09:46:46.050Z,13.65
2022-12-18T09:52:51.411Z,14.67
2022-12-18T09:58:58.567Z,13.95
2022-12-18T10:05:00.129Z,12.07
2022-12-18T10:11:14.340Z,16.63
2022-12-18T10:17:23.790Z,25.10
2022-12-18T10:23:48.696Z,13.37
2022-12-18T10:29:50.473Z,18.10
2022-12-18T10:35:52.156Z,14.17
2022-12-18T10:42:09.838Z,14.32
2022-12-18T10:48:22.096Z,13.27
2022-12-18T10:54:24.393Z,11.40
2022-12-18T11:00:28.580Z,15.73
2022-12-18T11:06:30.665Z,15.10
2022-12-18T11:12:34.820Z,13.85
2022-12-18T11:18:36.901Z,15.70
2022-12-18T11:24:38.437Z,14.37
2022-12-18T11:30:39.995Z,15.13
2022-12-18T11:36:48.260Z,14.37
2022-12-18T11:42:59.066Z,11.55
2022-12-18T11:49:12.005Z,14.50
2022-12-18T11:55:33.748Z,11.33
2022-12-18T12:01:40.515Z,15.80
2022-12-18T12:07:50.791Z,13.77
2022-12-18T12:14:08.395Z,15.07
2022-12-18T12:20:19.075Z,19.00
2022-12-18T12:26:31.224Z,15.07
2022-12-18T12:32:46.582Z,14.10
2022-12-18T12:38:57.694Z,13.30
2022-12-18T12:45:00.020Z,10.63
2022-12-18T12:51:03.457Z,10.98
2022-12-18T12:57:05.322Z,11.73
2022-12-18T13:03:13.078Z,14.57
2022-12-18T13:09:14.958Z,12.17
2022-12-18T13:15:23.947Z,13.63
2022-12-18T13:21:30.172Z,15.35
2022-12-18T13:27:41.148Z,14.33
2022-12-18T13:34:16.597Z,16.48
2022-12-18T13:40:25.628Z,16.30
2022-12-18T13:46:27.301Z,17.20
2022-12-18T13:52:29.897Z,17.00
2022-12-18T13:58:31.595Z,18.10
2022-12-18T14:04:34.195Z,25.10
2022-12-18T14:10:49.148Z,29.67
2022-12-18T14:16:51.384Z,26.20
2022-12-18T14:22:53.909Z,29.20
2022-12-18T14:28:59.626Z,29.77
2022-12-18T14:35:13.498Z,38.50
2022-12-18T14:41:17.205Z,28.93
2022-12-18T14:47:19.023Z,31.25
2022-12-18T14:53:42.091Z,29.35
2022-12-18T14:59:43.952Z,33.57
2022-12-18T15:05:46.078Z,23.35
2022-12-18T15:11:48.994Z,28.87
2022-12-18T15:17:57.370Z,29.77
2022-12-18T15:23:59.064Z,18.90
2022-12-18T15:30:01.825Z,21.77
2022-12-18T15:36:05.599Z,24.45
2022-12-18T15:42:27.952Z,21.30
2022-12-18T15:48:30.065Z,27.38
2022-12-18T15:54:50.601Z,22.88
2022-12-18T16:00:52.599Z,24.97
2022-12-18T16:13:18.971Z,31.57
2022-12-18T16:19:22.491Z,24.58
2022-12-18T16:25:26.532Z,27.60
2022-12-18T16:31:29.257Z,28.50
2022-12-18T16:37:31.036Z,26.50
2022-12-18T16:43:32.779Z,23.63
2022-12-18T16:49:34.482Z,26.77
2022-12-18T16:55:36.140Z,25.08
2022-12-18T17:01:38.377Z,24.77
2022-12-18T17:07:40.310Z,22.83
2022-12-18T17:13:42.551Z,20.27
2022-12-18T17:19:44.909Z,20.98
2022-12-18T17:25:46.878Z,22.58
2022-12-18T17:31:48.894Z,22.60
2022-12-18T17:37:50.613Z,20.88
2022-12-18T17:43:55.810Z,23.90
2022-12-18T17:49:57.530Z,23.10
2022-12-18T17:56:01.384Z,22.58
2022-12-18T18:02:04.315Z,22.67
2022-12-18T18:08:06.853Z,25.00
2022-12-18T18:14:12.558Z,22.33
2022-12-18T18:20:22.127Z,22.08
2022-12-18T18:26:24.343Z,23.92
2022-12-18T18:32:29.359Z,22.67
2022-12-18T18:38:31.143Z,23.40
2022-12-18T18:44:33.159Z,22.27
2022-12-18T18:50:35.333Z,28.83
2022-12-18T19:03:00.948Z,24.40
2022-12-18T19:09:04.352Z,29.98
2022-12-18T19:15:06.658Z,28.40
2022-12-18T19:21:08.586Z,21.33
2022-12-18T19:27:10.971Z,20.15
2022-12-18T19:33:34.506Z,18.27
2022-12-18T19:39:34.423Z,19.75
2022-12-18T19:45:36.210Z,17.43
2022-12-18T19:51:38.003Z,17.58
2022-12-18T19:57:39.873Z,15.68
2022-12-18T20:03:41.615Z,16.00
2022-12-18T20:09:43.926Z,18.15
2022-12-18T20:15:46.210Z,18.17
2022-12-18T20:21:47.910Z,17.38
2022-12-18T20:27:49.838Z,16.45
2022-12-18T20:33:53.335Z,18.70
2022-12-18T20:39:56.320Z,17.50
2022-12-18T20:46:04.818Z,18.20
2022-12-18T20:52:06.627Z,17.25
2022-12-18T20:58:08.181Z,17.00
2022-12-18T21:04:09.706Z,21.60
2022-12-18T21:10:11.414Z,18.23
2022-12-18T21:16:12.930Z,18.20
2022-12-18T21:22:14.431Z,18.55
2022-12-18T21:28:15.945Z,15.55
2022-12-18T21:34:18.570Z,17.87
2022-12-18T21:40:20.086Z,18.35
2022-12-18T21:46:21.928Z,21.93
2022-12-18T21:52:28.326Z,20.88
2022-12-18T21:58:33.939Z,19.00
2022-12-18T22:04:35.525Z,16.53
2022-12-18T22:10:37.968Z,19.00
2022-12-18T22:16:39.478Z,19.23
2022-12-18T22:22:41.304Z,17.48
2022-12-18T22:29:01.675Z,17.85
2022-12-18T22:35:09.229Z,16.10
2022-12-18T22:41:14.324Z,18.15
2022-12-18T22:47:15.818Z,21.00
2022-12-18T22:53:17.356Z,18.67
2022-12-18T22:59:20.210Z,18.75
2022-12-18T23:05:21.721Z,16.73
2022-12-18T23:11:23.521Z,15.52
2022-12-18T23:17:25.016Z,17.73
2022-12-18T23:23:26.521Z,21.63
2022-12-18T23:29:28.027Z,18.25
2022-12-18T23:35:29.575Z,17.47
2022-12-18T23:41:31.610Z,14.93
2022-12-18T23:47:33.263Z,15.53
2022-12-18T23:53:35.322Z,21.65
2022-12-18T23:59:36.872Z,21.83
